sensor_id;sensor_type;location;lat;lon;timestamp;P1;durP1;ratioP1;P2;durP2;ratioP2
16015;SDS011;8112;53.592;10.184;2023-07-08T00:01:41;5.53;;;5.03;;
16015;SDS011;8112;53.592;10.184;2023-07-08T00:06:42;6.17;;;4.60;;
16015;SDS011;8112;53.592;10.184;2023-07-08T00:11:46;5.67;;;5.13;;
16015;SDS011;8112;53.592;10.184;2023-07-08T00:16:47;6.20;;;4.60;;
16015;SDS011;8112;53.592;10.184;2023-07-08T00:21:50;6.83;;;5.13;;
16015;SDS011;8112;53.592;10.184;2023-07-08T00:26:54;6.10;;;5.50;;
16015;SDS011;8112;53.592;10.184;2023-07-08T00:31:56;7.30;;;5.67;;
16015;SDS011;8112;53.592;10.184;2023-07-08T00:36:57;6.03;;;5.10;;
16015;SDS011;8112;53.592;10.184;2023-07-08T00:42:01;8.30;;;5.00;;
16015;SDS011;8112;53.592;10.184;2023-07-08T00:47:11;7.07;;;5.33;;
16015;SDS011;8112;53.592;10.184;2023-07-08T00:52:24;10.10;;;5.50;;
16015;SDS011;8112;53.592;10.184;2023-07-08T00:57:29;6.10;;;5.50;;
16015;SDS011;8112;53.592;10.184;2023-07-08T01:02:38;7.43;;;5.47;;
16015;SDS011;8112;53.592;10.184;2023-07-08T01:07:44;9.20;;;5.33;;
16015;SDS011;8112;53.592;10.184;2023-07-08T01:12:53;5.53;;;5.00;;
16015;SDS011;8112;53.592;10.184;2023-07-08T01:18:01;7.67;;;5.73;;
16015;SDS011;8112;53.592;10.184;2023-07-08T01:23:05;6.17;;;5.57;;
16015;SDS011;8112;53.592;10.184;2023-07-08T01:28:07;6.03;;;5.43;;
16015;SDS011;8112;53.592;10.184;2023-07-08T01:33:12;6.23;;;5.63;;
16015;SDS011;8112;53.592;10.184;2023-07-08T01:38:21;5.87;;;5.37;;
16015;SDS011;8112;53.592;10.184;2023-07-08T01:43:26;7.40;;;5.97;;
16015;SDS011;8112;53.592;10.184;2023-07-08T01:48:29;5.83;;;5.23;;
16015;SDS011;8112;53.592;10.184;2023-07-08T01:53:40;6.47;;;5.47;;
16015;SDS011;8112;53.592;10.184;2023-07-08T01:58:42;8.03;;;5.23;;
16015;SDS011;8112;53.592;10.184;2023-07-08T02:03:44;7.87;;;5.50;;
16015;SDS011;8112;53.592;10.184;2023-07-08T02:08:48;6.10;;;5.50;;
16015;SDS011;8112;53.592;10.184;2023-07-08T02:13:51;6.73;;;5.70;;
16015;SDS011;8112;53.592;10.184;2023-07-08T02:18:52;6.00;;;5.50;;
16015;SDS011;8112;53.592;10.184;2023-07-08T02:23:55;5.90;;;5.20;;
16015;SDS011;8112;53.592;10.184;2023-07-08T02:28:58;7.00;;;5.63;;
16015;SDS011;8112;53.592;10.184;2023-07-08T02:34:00;8.67;;;5.70;;
16015;SDS011;8112;53.592;10.184;2023-07-08T02:39:03;5.70;;;5.20;;
16015;SDS011;8112;53.592;10.184;2023-07-08T02:44:05;6.17;;;5.63;;
16015;SDS011;8112;53.592;10.184;2023-07-08T02:49:07;8.20;;;5.73;;
16015;SDS011;8112;53.592;10.184;2023-07-08T02:54:10;5.77;;;5.17;;
16015;SDS011;8112;53.592;10.184;2023-07-08T02:59:12;6.33;;;5.57;;
16015;SDS011;8112;53.592;10.184;2023-07-08T03:04:13;7.90;;;5.40;;
16015;SDS011;8112;53.592;10.184;2023-07-08T03:09:16;6.50;;;5.90;;
16015;SDS011;8112;53.592;10.184;2023-07-08T03:14:18;6.03;;;5.10;;
16015;SDS011;8112;53.592;10.184;2023-07-08T03:19:20;6.57;;;5.67;;
16015;SDS011;8112;53.592;10.184;2023-07-08T03:24:23;6.13;;;5.53;;
16015;SDS011;8112;53.592;10.184;2023-07-08T03:29:26;5.53;;;4.97;;
16015;SDS011;8112;53.592;10.184;2023-07-08T03:34:28;6.67;;;5.47;;
16015;SDS011;8112;53.592;10.184;2023-07-08T03:39:31;5.40;;;4.80;;
16015;SDS011;8112;53.592;10.184;2023-07-08T03:44:33;6.40;;;5.60;;
16015;SDS011;8112;53.592;10.184;2023-07-08T03:49:35;5.37;;;4.87;;
16015;SDS011;8112;53.592;10.184;2023-07-08T03:54:39;6.37;;;5.20;;
16015;SDS011;8112;53.592;10.184;2023-07-08T03:59:40;6.87;;;5.13;;
16015;SDS011;8112;53.592;10.184;2023-07-08T04:04:42;6.37;;;4.83;;
16015;SDS011;8112;53.592;10.184;2023-07-08T04:09:46;7.23;;;4.83;;
16015;SDS011;8112;53.592;10.184;2023-07-08T04:14:50;5.30;;;4.80;;
16015;SDS011;8112;53.592;10.184;2023-07-08T04:19:51;4.83;;;4.40;;
16015;SDS011;8112;53.592;10.184;2023-07-08T04:24:54;5.80;;;4.53;;
16015;SDS011;8112;53.592;10.184;2023-07-08T04:29:56;6.87;;;4.67;;
16015;SDS011;8112;53.592;10.184;2023-07-08T04:34:58;6.43;;;3.77;;
16015;SDS011;8112;53.592;10.184;2023-07-08T04:40:01;4.00;;;3.60;;
16015;SDS011;8112;53.592;10.184;2023-07-08T04:45:03;4.33;;;3.40;;
16015;SDS011;8112;53.592;10.184;2023-07-08T04:50:06;4.33;;;3.93;;
16015;SDS011;8112;53.592;10.184;2023-07-08T04:55:12;7.40;;;3.90;;
16015;SDS011;8112;53.592;10.184;2023-07-08T05:00:15;9.97;;;4.37;;
16015;SDS011;8112;53.592;10.184;2023-07-08T05:05:19;4.23;;;3.60;;
16015;SDS011;8112;53.592;10.184;2023-07-08T05:10:22;5.90;;;3.73;;
16015;SDS011;8112;53.592;10.184;2023-07-08T05:15:24;6.67;;;3.57;;
16015;SDS011;8112;53.592;10.184;2023-07-08T05:20:26;6.43;;;3.83;;
16015;SDS011;8112;53.592;10.184;2023-07-08T05:25:32;5.50;;;3.50;;
16015;SDS011;8112;53.592;10.184;2023-07-08T05:30:34;3.73;;;3.43;;
16015;SDS011;8112;53.592;10.184;2023-07-08T05:35:35;4.03;;;3.27;;
16015;SDS011;8112;53.592;10.184;2023-07-08T05:40:39;5.57;;;3.53;;
16015;SDS011;8112;53.592;10.184;2023-07-08T05:45:40;4.57;;;3.40;;
16015;SDS011;8112;53.592;10.184;2023-07-08T05:50:42;4.67;;;3.30;;
16015;SDS011;8112;53.592;10.184;2023-07-08T05:55:47;3.90;;;3.43;;
16015;SDS011;8112;53.592;10.184;2023-07-08T06:00:54;4.30;;;3.37;;
16015;SDS011;8112;53.592;10.184;2023-07-08T06:05:56;3.17;;;2.87;;
16015;SDS011;8112;53.592;10.184;2023-07-08T06:10:59;3.70;;;3.40;;
16015;SDS011;8112;53.592;10.184;2023-07-08T06:16:01;3.70;;;3.30;;
16015;SDS011;8112;53.592;10.184;2023-07-08T06:21:02;5.17;;;3.20;;
16015;SDS011;8112;53.592;10.184;2023-07-08T06:26:06;4.87;;;3.40;;
16015;SDS011;8112;53.592;10.184;2023-07-08T06:31:07;3.87;;;3.00;;
16015;SDS011;8112;53.592;10.184;2023-07-08T06:36:09;5.00;;;3.27;;
16015;SDS011;8112;53.592;10.184;2023-07-08T06:41:12;4.43;;;3.00;;
16015;SDS011;8112;53.592;10.184;2023-07-08T06:46:14;3.73;;;2.70;;
16015;SDS011;8112;53.592;10.184;2023-07-08T06:51:16;3.67;;;2.50;;
16015;SDS011;8112;53.592;10.184;2023-07-08T06:56:19;4.50;;;2.67;;
16015;SDS011;8112;53.592;10.184;2023-07-08T07:01:21;4.33;;;3.10;;
16015;SDS011;8112;53.592;10.184;2023-07-08T07:06:23;5.47;;;3.37;;
16015;SDS011;8112;53.592;10.184;2023-07-08T07:11:26;4.10;;;2.57;;
16015;SDS011;8112;53.592;10.184;2023-07-08T07:16:28;4.40;;;3.13;;
16015;SDS011;8112;53.592;10.184;2023-07-08T07:21:32;2.87;;;2.43;;
16015;SDS011;8112;53.592;10.184;2023-07-08T07:26:35;4.03;;;2.77;;
16015;SDS011;8112;53.592;10.184;2023-07-08T07:31:37;4.33;;;2.67;;
16015;SDS011;8112;53.592;10.184;2023-07-08T07:36:40;3.22;;;2.25;;
16015;SDS011;8112;53.592;10.184;2023-07-08T07:41:43;3.17;;;2.30;;
16015;SDS011;8112;53.592;10.184;2023-07-08T07:46:44;2.80;;;2.03;;
16015;SDS011;8112;53.592;10.184;2023-07-08T07:51:47;3.42;;;2.42;;
16015;SDS011;8112;53.592;10.184;2023-07-08T07:56:50;4.77;;;2.60;;
16015;SDS011;8112;53.592;10.184;2023-07-08T08:01:52;2.78;;;2.40;;
16015;SDS011;8112;53.592;10.184;2023-07-08T08:06:54;4.50;;;2.28;;
16015;SDS011;8112;53.592;10.184;2023-07-08T08:11:57;3.22;;;2.28;;
16015;SDS011;8112;53.592;10.184;2023-07-08T08:16:58;7.63;;;2.67;;
16015;SDS011;8112;53.592;10.184;2023-07-08T08:22:00;3.22;;;1.83;;
16015;SDS011;8112;53.592;10.184;2023-07-08T08:27:04;3.63;;;2.15;;
16015;SDS011;8112;53.592;10.184;2023-07-08T08:32:06;3.25;;;2.30;;
16015;SDS011;8112;53.592;10.184;2023-07-08T08:37:08;3.92;;;2.20;;
16015;SDS011;8112;53.592;10.184;2023-07-08T08:42:13;3.17;;;2.08;;
16015;SDS011;8112;53.592;10.184;2023-07-08T08:47:25;2.92;;;2.20;;
16015;SDS011;8112;53.592;10.184;2023-07-08T08:52:33;2.67;;;2.40;;
16015;SDS011;8112;53.592;10.184;2023-07-08T08:57:37;5.05;;;2.40;;
16015;SDS011;8112;53.592;10.184;2023-07-08T09:02:48;4.00;;;2.00;;
16015;SDS011;8112;53.592;10.184;2023-07-08T09:07:59;3.38;;;2.35;;
16015;SDS011;8112;53.592;10.184;2023-07-08T09:13:06;3.10;;;2.10;;
16015;SDS011;8112;53.592;10.184;2023-07-08T09:18:14;2.10;;;1.90;;
16015;SDS011;8112;53.592;10.184;2023-07-08T09:23:22;3.15;;;2.20;;
16015;SDS011;8112;53.592;10.184;2023-07-08T09:28:36;2.85;;;2.28;;
16015;SDS011;8112;53.592;10.184;2023-07-08T09:33:39;2.95;;;1.80;;
16015;SDS011;8112;53.592;10.184;2023-07-08T09:38:40;2.95;;;1.92;;
16015;SDS011;8112;53.592;10.184;2023-07-08T09:43:43;2.28;;;2.08;;
16015;SDS011;8112;53.592;10.184;2023-07-08T09:48:45;4.32;;;2.80;;
16015;SDS011;8112;53.592;10.184;2023-07-08T09:53:47;2.40;;;2.20;;
16015;SDS011;8112;53.592;10.184;2023-07-08T09:58:50;2.95;;;2.17;;
16015;SDS011;8112;53.592;10.184;2023-07-08T10:03:52;3.17;;;2.50;;
16015;SDS011;8112;53.592;10.184;2023-07-08T10:09:00;2.75;;;1.88;;
16015;SDS011;8112;53.592;10.184;2023-07-08T10:14:07;3.75;;;2.38;;
16015;SDS011;8112;53.592;10.184;2023-07-08T10:19:16;3.45;;;2.10;;
16015;SDS011;8112;53.592;10.184;2023-07-08T10:24:22;3.55;;;2.17;;
16015;SDS011;8112;53.592;10.184;2023-07-08T10:29:39;2.78;;;2.40;;
16015;SDS011;8112;53.592;10.184;2023-07-08T10:34:49;3.03;;;2.72;;
16015;SDS011;8112;53.592;10.184;2023-07-08T10:40:00;5.30;;;2.65;;
16015;SDS011;8112;53.592;10.184;2023-07-08T10:45:15;3.17;;;2.42;;
16015;SDS011;8112;53.592;10.184;2023-07-08T10:50:29;3.17;;;2.25;;
16015;SDS011;8112;53.592;10.184;2023-07-08T10:55:43;2.05;;;1.95;;
16015;SDS011;8112;53.592;10.184;2023-07-08T11:00:55;3.35;;;2.40;;
16015;SDS011;8112;53.592;10.184;2023-07-08T11:06:07;2.67;;;2.35;;
16015;SDS011;8112;53.592;10.184;2023-07-08T11:11:16;3.67;;;2.45;;
16015;SDS011;8112;53.592;10.184;2023-07-08T11:16:29;4.18;;;1.98;;
16015;SDS011;8112;53.592;10.184;2023-07-08T11:21:35;4.20;;;2.40;;
16015;SDS011;8112;53.592;10.184;2023-07-08T11:26:42;3.10;;;2.05;;
16015;SDS011;8112;53.592;10.184;2023-07-08T11:31:48;3.00;;;2.00;;
16015;SDS011;8112;53.592;10.184;2023-07-08T11:36:51;3.65;;;2.05;;
16015;SDS011;8112;53.592;10.184;2023-07-08T11:42:03;3.45;;;2.20;;
16015;SDS011;8112;53.592;10.184;2023-07-08T11:47:15;3.88;;;2.25;;
16015;SDS011;8112;53.592;10.184;2023-07-08T11:52:20;4.15;;;2.35;;
16015;SDS011;8112;53.592;10.184;2023-07-08T11:57:24;2.90;;;2.10;;
16015;SDS011;8112;53.592;10.184;2023-07-08T12:02:31;5.03;;;2.22;;
16015;SDS011;8112;53.592;10.184;2023-07-08T12:07:52;4.15;;;2.50;;
16015;SDS011;8112;53.592;10.184;2023-07-08T12:12:57;2.97;;;2.33;;
16015;SDS011;8112;53.592;10.184;2023-07-08T12:18:01;3.55;;;2.78;;
16015;SDS011;8112;53.592;10.184;2023-07-08T12:23:09;2.47;;;2.28;;
16015;SDS011;8112;53.592;10.184;2023-07-08T12:28:13;2.75;;;2.13;;
16015;SDS011;8112;53.592;10.184;2023-07-08T12:33:17;2.53;;;2.33;;
16015;SDS011;8112;53.592;10.184;2023-07-08T12:38:26;4.18;;;2.72;;
16015;SDS011;8112;53.592;10.184;2023-07-08T12:43:30;3.08;;;2.50;;
16015;SDS011;8112;53.592;10.184;2023-07-08T12:48:34;2.72;;;2.40;;
16015;SDS011;8112;53.592;10.184;2023-07-08T12:53:36;4.15;;;2.88;;
16015;SDS011;8112;53.592;10.184;2023-07-08T12:58:39;4.75;;;2.42;;
16015;SDS011;8112;53.592;10.184;2023-07-08T13:03:45;5.40;;;2.60;;
16015;SDS011;8112;53.592;10.184;2023-07-08T13:08:50;2.40;;;2.20;;
16015;SDS011;8112;53.592;10.184;2023-07-08T13:13:53;3.03;;;2.70;;
16015;SDS011;8112;53.592;10.184;2023-07-08T13:18:57;3.20;;;2.65;;
16015;SDS011;8112;53.592;10.184;2023-07-08T13:23:59;5.00;;;2.67;;
16015;SDS011;8112;53.592;10.184;2023-07-08T13:29:04;6.18;;;2.58;;
16015;SDS011;8112;53.592;10.184;2023-07-08T13:34:15;5.07;;;2.47;;
16015;SDS011;8112;53.592;10.184;2023-07-08T13:39:20;3.97;;;2.63;;
16015;SDS011;8112;53.592;10.184;2023-07-08T13:44:26;3.92;;;2.80;;
16015;SDS011;8112;53.592;10.184;2023-07-08T13:49:55;3.92;;;2.53;;
16015;SDS011;8112;53.592;10.184;2023-07-08T13:55:02;6.45;;;2.95;;
16015;SDS011;8112;53.592;10.184;2023-07-08T14:00:17;3.90;;;2.50;;
16015;SDS011;8112;53.592;10.184;2023-07-08T14:05:21;5.43;;;2.80;;
16015;SDS011;8112;53.592;10.184;2023-07-08T14:10:22;2.63;;;2.42;;
16015;SDS011;8112;53.592;10.184;2023-07-08T14:15:24;3.15;;;2.85;;
16015;SDS011;8112;53.592;10.184;2023-07-08T14:20:28;3.05;;;2.70;;
16015;SDS011;8112;53.592;10.184;2023-07-08T14:25:30;2.90;;;2.70;;
16015;SDS011;8112;53.592;10.184;2023-07-08T14:30:32;3.88;;;2.70;;
16015;SDS011;8112;53.592;10.184;2023-07-08T14:35:35;5.03;;;3.03;;
16015;SDS011;8112;53.592;10.184;2023-07-08T14:40:38;2.97;;;2.75;;
16015;SDS011;8112;53.592;10.184;2023-07-08T14:45:41;3.25;;;2.83;;
16015;SDS011;8112;53.592;10.184;2023-07-08T14:50:47;3.55;;;2.80;;
16015;SDS011;8112;53.592;10.184;2023-07-08T14:55:50;2.80;;;2.55;;
16015;SDS011;8112;53.592;10.184;2023-07-08T15:00:54;3.17;;;2.88;;
16015;SDS011;8112;53.592;10.184;2023-07-08T15:05:58;3.63;;;3.33;;
16015;SDS011;8112;53.592;10.184;2023-07-08T15:11:00;2.80;;;2.50;;
16015;SDS011;8112;53.592;10.184;2023-07-08T15:16:02;5.95;;;3.00;;
16015;SDS011;8112;53.592;10.184;2023-07-08T15:21:06;6.70;;;3.53;;
16015;SDS011;8112;53.592;10.184;2023-07-08T15:26:09;3.63;;;3.25;;
16015;SDS011;8112;53.592;10.184;2023-07-08T15:31:13;4.97;;;3.03;;
16015;SDS011;8112;53.592;10.184;2023-07-08T15:36:16;5.80;;;3.15;;
16015;SDS011;8112;53.592;10.184;2023-07-08T15:41:19;4.32;;;2.90;;
16015;SDS011;8112;53.592;10.184;2023-07-08T15:46:24;3.33;;;2.70;;
16015;SDS011;8112;53.592;10.184;2023-07-08T15:51:31;7.10;;;3.10;;
16015;SDS011;8112;53.592;10.184;2023-07-08T23:40:34;4.40;;;2.40;;
16015;SDS011;8112;53.592;10.184;2023-07-08T23:45:36;3.00;;;2.20;;
16015;SDS011;8112;53.592;10.184;2023-07-08T23:50:38;5.37;;;2.60;;
16015;SDS011;8112;53.592;10.184;2023-07-08T23:55:41;5.27;;;2.30;;
